createdAt,value
2022-12-18T00:03:06.074Z,12.15
2022-12-18T00:08:03.136Z,10.77
2022-12-18T00:13:09.880Z,13.65
2022-12-18T00:18:07.468Z,15.75
2022-12-18T00:23:04.288Z,15.95
2022-12-18T00:28:01.627Z,16.48
2022-12-18T00:32:59.179Z,14.80
2022-12-18T00:37:56.175Z,16.08
2022-12-18T00:42:56.291Z,15.93
2022-12-18T00:47:54.203Z,16.17
2022-12-18T00:52:52.759Z,16.05
2022-12-18T00:57:51.738Z,16.48
2022-12-18T01:02:48.801Z,14.68
2022-12-18T01:07:45.722Z,14.45
2022-12-18T01:12:43.197Z,16.55
2022-12-18T01:17:40.908Z,15.50
2022-12-18T01:22:37.797Z,13.63
2022-12-18T01:27:35.255Z,14.20
2022-12-18T01:32:34.958Z,13.57
2022-12-18T01:37:32.817Z,16.48
2022-12-18T01:42:29.602Z,16.77
2022-12-18T01:47:30.413Z,14.48
2022-12-18T01:52:31.172Z,12.77
2022-12-18T01:57:29.789Z,13.73
2022-12-18T02:02:28.742Z,13.88
2022-12-18T02:07:38.777Z,12.25
2022-12-18T02:12:43.901Z,13.85
2022-12-18T02:17:47.257Z,13.68
2022-12-18T02:23:00.149Z,13.35
2022-12-18T02:28:03.093Z,14.32
2022-12-18T02:33:04.776Z,14.48
2022-12-18T02:38:05.511Z,12.82
2022-12-18T02:43:10.011Z,13.10
2022-12-18T02:48:09.072Z,13.10
2022-12-18T02:53:17.700Z,14.20
2022-12-18T02:58:19.627Z,15.70
2022-12-18T03:03:26.150Z,17.45
2022-12-18T03:08:28.549Z,13.57
2022-12-18T03:13:34.578Z,15.70
2022-12-18T03:18:37.384Z,15.15
2022-12-18T03:23:37.768Z,15.48
2022-12-18T03:28:40.968Z,15.77
2022-12-18T03:33:43.403Z,17.27
2022-12-18T03:38:40.426Z,16.33
2022-12-18T03:43:48.546Z,16.67
2022-12-18T03:48:53.490Z,16.55
2022-12-18T03:53:57.011Z,19.33
2022-12-18T03:59:02.802Z,18.67
2022-12-18T04:04:05.259Z,18.05
2022-12-18T04:09:05.788Z,16.60
2022-12-18T04:14:07.737Z,19.40
2022-12-18T04:19:05.520Z,17.40
2022-12-18T04:24:09.177Z,18.88
2022-12-18T04:29:13.026Z,18.52
2022-12-18T04:34:10.536Z,19.30
2022-12-18T04:39:13.590Z,19.92
2022-12-18T04:44:12.385Z,18.55
2022-12-18T04:49:10.884Z,18.98
2022-12-18T04:54:07.658Z,18.48
2022-12-18T04:59:05.238Z,19.38
2022-12-18T05:04:02.927Z,17.95
2022-12-18T05:08:59.725Z,19.98
2022-12-18T05:13:59.581Z,18.83
2022-12-18T05:18:56.436Z,20.35
2022-12-18T05:23:53.889Z,19.58
2022-12-18T05:28:50.716Z,19.33
2022-12-18T05:33:50.313Z,20.10
2022-12-18T05:38:47.100Z,19.90
2022-12-18T05:43:44.810Z,21.52
2022-12-18T05:48:42.921Z,20.38
2022-12-18T05:53:40.132Z,18.83
2022-12-18T05:58:37.737Z,19.33
2022-12-18T06:03:35.361Z,19.92
2022-12-18T06:08:32.136Z,19.95
2022-12-18T06:13:28.892Z,18.60
2022-12-18T06:18:25.652Z,20.50
2022-12-18T06:23:23.424Z,22.40
2022-12-18T06:28:20.843Z,20.60
2022-12-18T06:33:18.108Z,20.90
2022-12-18T06:38:15.031Z,21.92
2022-12-18T06:43:12.629Z,19.88
2022-12-18T06:48:09.455Z,21.40
2022-12-18T06:53:06.212Z,20.77
2022-12-18T06:58:04.222Z,20.25
2022-12-18T07:03:01.776Z,21.10
2022-12-18T07:07:59.114Z,19.55
2022-12-18T07:13:00.132Z,20.75
2022-12-18T07:17:57.234Z,21.63
2022-12-18T07:22:56.348Z,20.98
2022-12-18T07:27:53.369Z,22.23
2022-12-18T07:32:50.481Z,22.25
2022-12-18T07:37:47.460Z,18.52
2022-12-18T07:42:44.939Z,20.15
2022-12-18T07:47:43.063Z,21.40
2022-12-18T07:52:39.990Z,22.33
2022-12-18T07:57:56.390Z,21.88
2022-12-18T08:02:56.363Z,20.65
2022-12-18T08:07:53.650Z,21.27
2022-12-18T08:12:51.831Z,21.88
2022-12-18T08:17:48.654Z,20.65
2022-12-18T08:22:48.314Z,20.65
2022-12-18T08:27:45.443Z,21.83
2022-12-18T08:32:43.326Z,20.42
2022-12-18T08:37:41.320Z,19.95
2022-12-18T08:42:58.434Z,20.67
2022-12-18T08:48:19.274Z,21.50
2022-12-18T08:53:19.090Z,19.58
2022-12-18T08:58:18.229Z,19.35
2022-12-18T09:03:16.327Z,18.50
2022-12-18T09:08:13.803Z,18.48
2022-12-18T09:13:11.548Z,19.63
2022-12-18T09:18:15.608Z,20.90
2022-12-18T09:23:14.323Z,18.40
2022-12-18T09:28:17.253Z,19.40
2022-12-18T09:33:16.337Z,19.13
2022-12-18T09:38:15.229Z,18.65
2022-12-18T09:43:20.141Z,20.02
2022-12-18T09:48:23.854Z,18.57
2022-12-18T09:53:25.748Z,19.33
2022-12-18T09:58:48.836Z,20.20
2022-12-18T10:03:46.478Z,17.95
2022-12-18T10:08:49.119Z,18.08
2022-12-18T10:13:53.129Z,18.30
2022-12-18T10:19:05.290Z,19.13
2022-12-18T10:24:14.906Z,18.95
2022-12-18T10:29:13.779Z,16.88
2022-12-18T10:34:14.308Z,20.73
2022-12-18T10:39:17.273Z,19.75
2022-12-18T10:44:19.005Z,19.30
2022-12-18T10:49:28.889Z,20.63
2022-12-18T10:54:28.243Z,20.50
2022-12-18T10:59:25.213Z,21.50
2022-12-18T11:04:26.351Z,20.45
2022-12-18T11:09:24.965Z,20.58
2022-12-18T11:14:25.468Z,21.15
2022-12-18T11:19:31.721Z,18.73
2022-12-18T11:24:31.659Z,19.15
2022-12-18T11:29:34.895Z,18.67
2022-12-18T11:34:33.535Z,19.27
2022-12-18T11:39:36.893Z,20.00
2022-12-18T11:44:42.082Z,20.23
2022-12-18T11:49:51.501Z,20.80
2022-12-18T11:54:53.583Z,22.27
2022-12-18T12:00:02.051Z,20.60
2022-12-18T12:05:28.666Z,20.67
2022-12-18T12:10:38.949Z,21.65
2022-12-18T12:15:59.190Z,23.15
2022-12-18T12:21:07.321Z,21.25
2022-12-18T12:26:08.786Z,21.75
2022-12-18T12:31:17.460Z,21.20
2022-12-18T12:36:22.046Z,21.80
2022-12-18T12:41:40.894Z,21.27
2022-12-18T12:46:41.416Z,23.88
2022-12-18T12:51:41.549Z,22.98
2022-12-18T12:56:43.146Z,23.60
2022-12-18T13:01:48.646Z,25.02
2022-12-18T13:06:52.453Z,23.73
2022-12-18T13:12:07.921Z,24.80
2022-12-18T13:22:25.900Z,22.05
2022-12-18T13:27:55.622Z,24.42
2022-12-18T13:34:24.672Z,23.65
2022-12-18T13:39:36.716Z,23.13
2022-12-18T13:44:40.303Z,22.83
2022-12-18T13:49:40.675Z,23.55
2022-12-18T13:54:43.364Z,21.35
2022-12-18T13:59:40.797Z,22.02
2022-12-18T14:04:39.530Z,20.75
2022-12-18T14:09:38.886Z,22.00
2022-12-18T14:14:38.195Z,24.00
2022-12-18T14:19:35.414Z,22.85
2022-12-18T14:24:32.394Z,24.40
2022-12-18T14:29:31.055Z,26.23
2022-12-18T14:34:30.674Z,28.38
2022-12-18T14:39:36.673Z,24.75
2022-12-18T14:44:50.774Z,24.50
2022-12-18T14:50:15.767Z,28.98
2022-12-18T15:01:15.266Z,27.15
2022-12-18T15:13:21.630Z,26.83
2022-12-18T15:18:24.074Z,29.38
2022-12-18T15:23:22.974Z,35.95
2022-12-18T15:28:27.375Z,37.78
2022-12-18T15:33:33.382Z,37.53
2022-12-18T15:38:30.846Z,38.95
2022-12-18T15:43:37.209Z,43.40
2022-12-18T15:48:38.231Z,41.72
2022-12-18T15:53:35.154Z,46.25
2022-12-18T15:58:34.932Z,48.28
2022-12-18T16:03:31.957Z,43.03
2022-12-18T16:08:29.674Z,44.33
2022-12-18T16:13:26.608Z,38.33
2022-12-18T16:18:25.372Z,36.83
2022-12-18T16:23:28.010Z,40.00
2022-12-18T16:28:28.417Z,40.78
2022-12-18T16:33:28.508Z,29.55
2022-12-18T16:38:25.462Z,28.88
2022-12-18T16:43:22.280Z,22.23
2022-12-18T16:48:19.813Z,22.00
2022-12-18T16:53:17.533Z,22.63
2022-12-18T16:58:14.342Z,25.20
2022-12-18T17:03:11.402Z,22.38
2022-12-18T17:08:23.421Z,22.33
2022-12-18T17:13:25.629Z,22.50
2022-12-18T17:18:22.850Z,20.63
2022-12-18T17:23:19.705Z,21.23
2022-12-18T17:28:16.473Z,19.60
2022-12-18T17:33:13.903Z,20.83
2022-12-18T17:38:11.292Z,18.48
2022-12-18T17:43:09.321Z,16.23
2022-12-18T17:48:07.332Z,14.88
2022-12-18T17:53:04.854Z,16.63
2022-12-18T17:58:01.733Z,14.05
2022-12-18T18:02:58.909Z,16.50
2022-12-18T18:07:56.563Z,17.75
2022-12-18T18:13:12.232Z,15.52
2022-12-18T18:18:09.946Z,16.77
2022-12-18T18:23:08.249Z,13.00
2022-12-18T18:28:05.829Z,13.82
2022-12-18T18:33:08.873Z,15.07
2022-12-18T18:38:08.881Z,15.35
2022-12-18T18:43:06.381Z,14.80
2022-12-18T18:48:04.007Z,15.15
2022-12-18T18:53:00.853Z,14.93
2022-12-18T18:57:57.672Z,16.35
2022-12-18T19:03:00.410Z,14.50
2022-12-18T19:07:57.800Z,15.70
2022-12-18T19:13:13.200Z,17.10
2022-12-18T19:18:10.730Z,17.95
2022-12-18T19:23:08.004Z,19.23
2022-12-18T19:28:05.758Z,19.17
2022-12-18T19:33:19.893Z,18.38
2022-12-18T19:38:23.949Z,20.13
2022-12-18T19:43:21.156Z,21.60
2022-12-18T19:48:18.132Z,19.67
2022-12-18T19:53:15.188Z,23.60
2022-12-18T19:58:12.779Z,27.75
2022-12-18T20:03:21.279Z,33.10
2022-12-18T20:08:22.324Z,35.92
2022-12-18T20:13:20.180Z,28.40
2022-12-18T20:18:17.056Z,28.17
2022-12-18T20:23:14.739Z,24.63
2022-12-18T20:28:11.627Z,29.45
2022-12-18T20:33:09.081Z,26.90
2022-12-18T20:38:06.235Z,31.65
2022-12-18T20:43:03.594Z,24.85
2022-12-18T20:48:01.061Z,27.35
2022-12-18T20:52:58.622Z,19.65
2022-12-18T20:57:55.565Z,20.98
2022-12-18T21:02:52.463Z,16.52
2022-12-18T21:07:49.462Z,15.77
2022-12-18T21:12:58.824Z,13.55
2022-12-18T21:17:58.368Z,16.65
2022-12-18T21:22:57.725Z,17.50
2022-12-18T21:28:09.490Z,15.40
2022-12-18T21:33:06.343Z,16.95
2022-12-18T21:38:03.199Z,18.83
2022-12-18T21:43:20.501Z,15.20
2022-12-18T21:48:17.993Z,15.35
2022-12-18T21:53:14.783Z,17.40
2022-12-18T21:58:11.724Z,16.33
2022-12-18T22:03:18.687Z,16.98
2022-12-18T22:08:16.728Z,15.90
2022-12-18T22:13:13.578Z,17.77
2022-12-18T22:18:10.371Z,14.40
2022-12-18T22:23:07.305Z,13.45
2022-12-18T22:28:23.373Z,16.98
2022-12-18T22:38:19.904Z,16.83
2022-12-18T22:43:17.481Z,16.45
2022-12-18T22:48:14.295Z,15.73
2022-12-18T22:53:13.387Z,16.92
2022-12-18T22:58:10.231Z,23.45
2022-12-18T23:03:09.006Z,18.45
2022-12-18T23:08:05.864Z,19.20
2022-12-18T23:13:02.725Z,14.38
2022-12-18T23:17:59.833Z,22.63
2022-12-18T23:22:57.308Z,19.58
2022-12-18T23:27:54.112Z,18.98
2022-12-18T23:32:51.072Z,25.95
2022-12-18T23:37:59.220Z,18.95
2022-12-18T23:42:58.362Z,24.10
2022-12-18T23:47:55.164Z,19.77
2022-12-18T23:52:51.909Z,23.42
2022-12-18T23:57:48.765Z,22.67
